This is the latest recevied weather packets stored in our database for station/object EA5BZ. If no packets are shown the sender has not sent any weather packets the latest 10 day(s).
| Time | Temp. | Humidity | Pressure | Rain* | Wind** | Luminosity | Snow |
|---|---|---|---|---|---|---|---|
| 1777834816 | 17.78° C | 86% | 1013.4 hPa | 0 mm | - | - | - |
| 1777834216 | 17.78° C | 85% | 1013.5 hPa | 0 mm | - | - | - |
| 1777833916 | 17.78° C | 84% | 1013.7 hPa | 0 mm | - | - | - |
| 1777833616 | 17.78° C | 84% | 1013.6 hPa | 0 mm | - | - | - |
| 1777832416 | 18.33° C | 83% | 1013.5 hPa | 0 mm | - | - | - |
| 1777828216 | 18.89° C | 81% | 1013.1 hPa | 0 mm | - | - | - |
| 1777827916 | 18.89° C | 80% | 1013.1 hPa | 0 mm | - | - | - |
| 1777827616 | 18.89° C | 79% | 1013 hPa | 0 mm | - | - | - |
| 1777827316 | 18.89° C | 79% | 1013 hPa | 0 mm | - | - | - |
| 1777824616 | 19.44° C | 74% | 1013 hPa | 0 mm | - | - | - |
| 1777824336 | 18.89° C | 75% | 1013 hPa | 0 mm | - | - | - |
| 1777823716 | 19.44° C | 73% | 1013.1 hPa | 0 mm | - | - | - |
| 1777822816 | 20° C | 72% | 1013.2 hPa | 0 mm | - | - | - |
| 1777820716 | 20.56° C | 69% | 1013.2 hPa | 0 mm | - | - | - |
| 1777820115 | 21.11° C | 68% | 1013.3 hPa | 0 mm | - | - | - |
| 1777819515 | 21.11° C | 68% | 1013.3 hPa | 0 mm | - | - | - |
| 1777817117 | 22.22° C | 65% | 1013.6 hPa | 0 mm | - | - | - |
| 1777815617 | 22.78° C | 64% | 1013.9 hPa | 0 mm | - | - | - |
| 1777815317 | 23.33° C | 63% | 1013.9 hPa | 0 mm | - | - | - |
| 1777814117 | 24.44° C | 60% | 1014.2 hPa | 0 mm | - | - | - |
| 1777810517 | 22.22° C | 65% | 1014.8 hPa | 0 mm | - | - | - |
| 1777807517 | 20.56° C | 69% | 1015.6 hPa | 0 mm | - | - | - |
| 1777803917 | 18.89° C | 76% | 1016.1 hPa | 0 mm | - | - | - |
| 1777803637 | 18.89° C | 76% | 1016.2 hPa | 0 mm | - | - | - |
| 1777800017 | 18.33° C | 79% | 1016.9 hPa | 0 mm | - | - | - |
* Rain latest hour (hover to see other rain measurements)
** Current wind speed in m/s (hover to see current wind gust speed)